createdAt,value
2023-02-15T00:00:00.964Z,100045.97
2023-02-15T00:00:33.880Z,100038.28
2023-02-15T00:01:07.506Z,100049.53
2023-02-15T00:01:40.279Z,100037.25
2023-02-15T00:02:12.789Z,100044.25
2023-02-15T00:02:45.342Z,100043.44
2023-02-15T00:03:36.776Z,100045.88
2023-02-15T00:04:10.268Z,100047.63
2023-02-15T00:05:01.502Z,100051.97
2023-02-15T00:05:34.314Z,100048.62
2023-02-15T00:06:07.039Z,100044.31
2023-02-15T00:06:39.874Z,100044.47
2023-02-15T00:07:14.191Z,100039.19
2023-02-15T00:07:46.726Z,100044.44
2023-02-15T00:08:19.304Z,100043.63
2023-02-15T00:08:52.053Z,100048.69
2023-02-15T00:09:24.588Z,100045.00
2023-02-15T00:09:57.203Z,100043.19
2023-02-15T00:10:29.814Z,100046.81
2023-02-15T00:11:09.166Z,100047.63
2023-02-15T00:12:02.657Z,100046.81
2023-02-15T00:12:35.458Z,100049.38
2023-02-15T00:13:28.183Z,100046.72
2023-02-15T00:14:22.897Z,100047.34
2023-02-15T00:14:56.510Z,100038.59
2023-02-15T00:15:52.754Z,100045.66
2023-02-15T00:16:25.516Z,100043.84
2023-02-15T00:17:00.803Z,100049.09
2023-02-15T00:17:52.265Z,100049.16
2023-02-15T00:18:25.036Z,100052.62
2023-02-15T00:18:58.508Z,100053.31
2023-02-15T00:19:31.277Z,100051.69
2023-02-15T00:20:04.256Z,100052.59
2023-02-15T00:20:55.746Z,100058.66
2023-02-15T00:21:30.655Z,100049.03
2023-02-15T00:22:03.560Z,100050.06
2023-02-15T00:22:36.351Z,100050.16
2023-02-15T00:23:28.030Z,100056.31
2023-02-15T00:24:00.910Z,100052.12
2023-02-15T00:24:33.577Z,100052.84
2023-02-15T00:25:25.178Z,100051.94
2023-02-15T00:26:11.430Z,100050.81
2023-02-15T00:27:02.849Z,100053.44
2023-02-15T00:27:53.801Z,100046.50
2023-02-15T00:28:45.299Z,100053.63
2023-02-15T00:29:18.026Z,100043.97
2023-02-15T00:29:52.562Z,100050.06
2023-02-15T00:30:43.939Z,100049.09
2023-02-15T00:31:17.618Z,100045.97
2023-02-15T00:31:50.420Z,100047.69
2023-02-15T00:32:23.135Z,100051.06
2023-02-15T00:32:55.678Z,100053.59
2023-02-15T00:33:28.238Z,100056.91
2023-02-15T00:34:08.559Z,100048.09
2023-02-15T00:34:41.337Z,100044.50
2023-02-15T00:35:13.940Z,100041.91
2023-02-15T00:35:46.524Z,100049.03
2023-02-15T00:36:19.285Z,100043.22
2023-02-15T00:36:52.056Z,100041.59
2023-02-15T00:37:24.620Z,100052.97
2023-02-15T00:37:57.351Z,100048.59
2023-02-15T00:38:30.395Z,100040.59
2023-02-15T00:39:05.668Z,100043.97
2023-02-15T00:39:38.431Z,100042.22
2023-02-15T00:40:11.444Z,100043.97
2023-02-15T00:40:43.971Z,100045.62
2023-02-15T00:41:16.551Z,100050.19
2023-02-15T00:41:49.136Z,100044.06
2023-02-15T00:42:21.746Z,100048.38
2023-02-15T00:42:54.442Z,100045.75
2023-02-15T00:43:27.688Z,100052.78
2023-02-15T00:44:00.512Z,100051.03
2023-02-15T00:44:33.091Z,100049.38
2023-02-15T00:45:05.953Z,100045.81
2023-02-15T00:45:38.503Z,100045.09
2023-02-15T00:46:11.125Z,100041.47
2023-02-15T00:46:44.749Z,100047.63
2023-02-15T00:47:17.577Z,100044.09
2023-02-15T00:47:50.105Z,100043.94
2023-02-15T00:48:22.847Z,100044.81
2023-02-15T00:49:14.264Z,100039.44
2023-02-15T00:49:46.810Z,100044.75
2023-02-15T00:50:19.310Z,100042.22
2023-02-15T00:51:18.230Z,100036.28
2023-02-15T00:51:50.770Z,100033.87
2023-02-15T00:52:23.300Z,100039.97
2023-02-15T00:52:56.033Z,100039.88
2023-02-15T00:53:28.936Z,100038.88
2023-02-15T00:54:01.817Z,100036.28
2023-02-15T00:54:35.694Z,100042.28
2023-02-15T00:55:08.363Z,100040.72
2023-02-15T00:55:41.356Z,100043.31
2023-02-15T00:56:13.914Z,100041.53
2023-02-15T00:56:46.453Z,100035.59
2023-02-15T00:57:19.015Z,100039.94
2023-02-15T00:57:51.588Z,100040.84
2023-02-15T00:58:42.840Z,100042.69
2023-02-15T00:59:15.358Z,100035.75
2023-02-15T00:59:48.029Z,100039.16
2023-02-15T01:00:20.678Z,100037.47
2023-02-15T01:00:53.473Z,100028.69
2023-02-15T01:01:26.955Z,100034.75
2023-02-15T01:01:59.385Z,100036.38
2023-02-15T01:02:31.912Z,100036.38
2023-02-15T01:03:04.916Z,100037.28
2023-02-15T01:03:37.466Z,100038.13
2023-02-15T01:04:10.115Z,100045.09
2023-02-15T01:04:42.578Z,100036.25
2023-02-15T01:05:15.122Z,100046.72
2023-02-15T01:05:47.799Z,100041.66
2023-02-15T01:06:20.410Z,100042.53
2023-02-15T01:06:52.960Z,100041.63
2023-02-15T01:08:13.093Z,100043.31
2023-02-15T01:08:46.024Z,100042.19
2023-02-15T01:09:18.740Z,100036.03
2023-02-15T01:09:51.281Z,100040.53
2023-02-15T01:10:23.971Z,100036.22
2023-02-15T01:11:46.377Z,100040.63
2023-02-15T01:12:18.980Z,100042.28
2023-02-15T01:12:52.073Z,100037.94
2023-02-15T01:13:24.626Z,100040.59
2023-02-15T01:13:57.580Z,100038.88
2023-02-15T01:14:30.143Z,100038.72
2023-02-15T01:15:02.700Z,100031.00
2023-02-15T01:15:36.519Z,100036.28
2023-02-15T01:16:09.490Z,100038.09
2023-02-15T01:16:41.998Z,100030.25
2023-02-15T01:17:14.557Z,100036.41
2023-02-15T01:18:30.992Z,100031.91
2023-02-15T01:19:03.816Z,100031.88
2023-02-15T01:19:54.952Z,100028.38
2023-02-15T01:20:28.367Z,100028.28
2023-02-15T01:21:01.118Z,100025.72
2023-02-15T01:21:52.680Z,100033.66
2023-02-15T01:22:25.494Z,100030.19
2023-02-15T01:22:58.350Z,100032.06
2023-02-15T01:23:11.164Z,100041.66
2023-02-15T01:23:43.962Z,100031.19
2023-02-15T01:24:16.723Z,100032.12
2023-02-15T01:25:08.398Z,100031.16
2023-02-15T01:25:40.987Z,100035.28
2023-02-15T01:26:32.025Z,100037.84
2023-02-15T01:27:04.594Z,100035.34
2023-02-15T01:27:37.142Z,100035.34
2023-02-15T01:28:09.713Z,100036.13
2023-02-15T01:28:42.613Z,100033.50
2023-02-15T01:29:15.180Z,100033.56
2023-02-15T01:29:48.521Z,100034.50
2023-02-15T01:30:50.686Z,100032.78
2023-02-15T01:31:23.310Z,100023.37
2023-02-15T01:31:56.021Z,100027.75
2023-02-15T01:32:28.488Z,100027.84
2023-02-15T01:33:20.281Z,100026.84
2023-02-15T01:33:52.817Z,100029.25
2023-02-15T01:34:25.407Z,100022.16
2023-02-15T01:35:17.541Z,100022.91
2023-02-15T01:35:50.082Z,100021.38
2023-02-15T01:36:22.653Z,100018.84
2023-02-15T01:37:14.269Z,100011.03
2023-02-15T01:38:05.584Z,100017.06
2023-02-15T01:38:57.251Z,100019.66
2023-02-15T01:39:29.850Z,100019.63
2023-02-15T01:40:03.398Z,100021.41
2023-02-15T01:40:54.726Z,100014.63
2023-02-15T01:41:28.216Z,100012.59
2023-02-15T01:42:00.772Z,100009.84
2023-02-15T01:42:33.375Z,100010.75
2023-02-15T01:43:11.408Z,100014.25
2023-02-15T01:43:49.020Z,100014.47
2023-02-15T01:44:54.318Z,100006.75
2023-02-15T01:45:30.619Z,100006.09
2023-02-15T01:46:03.492Z,100009.53
2023-02-15T01:47:02.880Z,100015.31
2023-02-15T01:47:38.296Z,100007.19
2023-02-15T01:48:30.405Z,100010.91
2023-02-15T01:49:04.205Z,100009.87
2023-02-15T01:49:36.737Z,100007.34
2023-02-15T01:50:30.576Z,100003.16
2023-02-15T01:51:52.201Z,100002.28
2023-02-15T01:52:24.721Z,100009.94
2023-02-15T01:53:25.013Z,100004.78
2023-02-15T01:54:20.851Z,100002.19
2023-02-15T01:54:53.593Z,100009.38
2023-02-15T01:55:28.091Z,100007.50
2023-02-15T01:56:24.882Z,100008.31
2023-02-15T01:57:00.696Z,100009.16
2023-02-15T01:57:33.259Z,100009.84
2023-02-15T01:58:30.221Z,100006.56
2023-02-15T01:59:04.715Z,100000.53
2023-02-15T01:59:39.010Z,100010.06
2023-02-15T02:00:11.835Z,100010.03
2023-02-15T02:01:05.251Z,100015.03
2023-02-15T02:01:37.824Z,100005.16
2023-02-15T02:02:10.734Z,100006.06
2023-02-15T02:02:43.370Z,100009.72
2023-02-15T02:03:15.838Z,100007.25
2023-02-15T02:04:03.174Z,100009.81
2023-02-15T02:04:56.606Z,100000.28
2023-02-15T02:05:47.594Z,100003.00
2023-02-15T02:06:20.339Z,100006.37
2023-02-15T02:06:53.071Z,99998.50
2023-02-15T02:07:28.278Z,99999.41
2023-02-15T02:08:00.987Z,99995.00
2023-02-15T02:08:51.909Z,99995.94
2023-02-15T02:09:43.171Z,99995.75
2023-02-15T02:10:18.446Z,99995.66
2023-02-15T02:11:13.004Z,99999.38
2023-02-15T02:11:47.125Z,99998.38
2023-02-15T02:12:19.907Z,99996.75
2023-02-15T02:12:55.982Z,99993.41
2023-02-15T02:13:28.565Z,100003.66
2023-02-15T02:14:01.293Z,99994.13
2023-02-15T02:14:34.045Z,99996.78
2023-02-15T02:15:07.203Z,100002.91
2023-02-15T02:15:49.903Z,99996.72
2023-02-15T02:16:33.263Z,99996.84
2023-02-15T02:17:08.209Z,99996.13
2023-02-15T02:18:11.362Z,99993.50
2023-02-15T02:19:25.118Z,99999.66
2023-02-15T02:20:16.520Z,99984.00
2023-02-15T02:21:04.181Z,99995.25
2023-02-15T02:22:05.235Z,99991.75
2023-02-15T02:23:06.057Z,100002.03
2023-02-15T02:23:41.595Z,100001.97
2023-02-15T02:24:37.436Z,99992.28
2023-02-15T02:25:13.199Z,99995.03
2023-02-15T02:26:33.005Z,99990.91
2023-02-15T02:27:25.532Z,99990.22
2023-02-15T02:28:15.976Z,99990.88
2023-02-15T02:28:48.489Z,99997.59
2023-02-15T02:29:49.100Z,99988.84
2023-02-15T02:30:27.175Z,99993.31
2023-02-15T02:31:26.873Z,99994.19
2023-02-15T02:32:14.418Z,99989.66
2023-02-15T02:33:40.596Z,99997.59
2023-02-15T02:34:30.405Z,99996.13
2023-02-15T02:35:17.357Z,99991.81
2023-02-15T02:35:33.093Z,99991.75
2023-02-15T02:36:41.739Z,99989.22
2023-02-15T02:37:23.002Z,99990.84
2023-02-15T02:38:39.772Z,99992.50
2023-02-15T02:39:50.899Z,99992.44
2023-02-15T02:40:39.192Z,99995.06
2023-02-15T02:41:20.769Z,99998.63
2023-02-15T02:42:11.327Z,100006.34
2023-02-15T03:16:12.918Z,100008.62
2023-02-15T03:16:47.111Z,100007.88
2023-02-15T03:17:22.951Z,100009.75
2023-02-15T03:17:59.706Z,100008.16
2023-02-15T03:18:35.662Z,100012.31
2023-02-15T03:19:12.494Z,100007.28
2023-02-15T03:19:45.239Z,100007.28
2023-02-15T03:20:36.737Z,100008.09
2023-02-15T03:21:09.391Z,100009.09
2023-02-15T03:22:10.439Z,100013.37
2023-02-15T03:22:54.407Z,100004.62
2023-02-15T03:23:27.153Z,100007.19
2023-02-15T03:24:01.718Z,100010.72
2023-02-15T03:25:05.749Z,100010.75
2023-02-15T03:25:42.414Z,100010.47
2023-02-15T03:26:14.999Z,100005.59
2023-02-15T03:26:48.874Z,100006.37
2023-02-15T03:27:27.077Z,100011.59
2023-02-15T03:28:22.142Z,100004.44
2023-02-15T03:28:55.765Z,100007.94
2023-02-15T03:29:18.528Z,100009.53
2023-02-15T03:30:49.727Z,100009.53
2023-02-15T03:31:22.862Z,100005.03
2023-02-15T03:32:00.302Z,100001.44
2023-02-15T03:32:33.979Z,100008.38
2023-02-15T03:33:33.757Z,100009.41
2023-02-15T03:34:08.774Z,100011.94
2023-02-15T03:35:07.429Z,100009.31
2023-02-15T03:37:34.420Z,100016.41
2023-02-15T03:41:11.789Z,100018.88
2023-02-15T03:41:55.472Z,100019.84
2023-02-15T03:43:13.590Z,100014.56
2023-02-15T03:49:50.024Z,100011.00
2023-02-15T03:50:42.915Z,100008.34
2023-02-15T03:51:36.026Z,100014.25
2023-02-15T03:51:50.060Z,100009.87
2023-02-15T03:52:22.838Z,100012.44
2023-02-15T03:52:56.129Z,100010.75
2023-02-15T03:53:28.872Z,100012.38
2023-02-15T03:54:11.724Z,100010.63
2023-02-15T03:54:44.485Z,100008.12
2023-02-15T03:55:17.459Z,100006.37
2023-02-15T03:55:50.810Z,100013.41
2023-02-15T03:56:23.371Z,100008.16
2023-02-15T03:57:15.930Z,100009.87
2023-02-15T03:58:25.393Z,100022.12
2023-02-15T03:59:34.915Z,100009.97
2023-02-15T04:00:33.734Z,100005.66
2023-02-15T04:01:26.738Z,100011.59
2023-02-15T04:02:23.059Z,100009.87
2023-02-15T04:03:18.240Z,100021.16
2023-02-15T04:04:20.566Z,100016.69
2023-02-15T04:04:53.285Z,100018.41
2023-02-15T04:05:26.127Z,100012.38
2023-02-15T04:05:58.730Z,100014.97
2023-02-15T04:06:31.249Z,100008.84
2023-02-15T04:07:04.258Z,100016.75
2023-02-15T04:07:36.818Z,100016.72
2023-02-15T04:08:47.575Z,100009.72
2023-02-15T04:10:02.335Z,100011.44
2023-02-15T04:10:53.154Z,100016.56
2023-02-15T04:11:25.786Z,100013.91
2023-02-15T04:11:58.515Z,100013.84
2023-02-15T04:12:31.577Z,100006.03
2023-02-15T04:13:04.134Z,100010.37
2023-02-15T04:13:36.728Z,100015.59
2023-02-15T04:14:35.489Z,100017.38
2023-02-15T04:15:45.601Z,100014.06
2023-02-15T04:16:18.378Z,100013.91
2023-02-15T04:16:51.057Z,100015.72
2023-02-15T04:17:23.842Z,100016.63
2023-02-15T04:17:56.575Z,100017.53
2023-02-15T04:18:47.728Z,100017.56
2023-02-15T04:19:39.087Z,100018.44
2023-02-15T04:20:49.550Z,100014.88
2023-02-15T04:21:41.173Z,100009.72
2023-02-15T04:22:34.185Z,100014.03
2023-02-15T04:23:43.901Z,100017.31
2023-02-15T04:24:35.558Z,100013.03
2023-02-15T04:25:14.331Z,100015.72
2023-02-15T04:26:17.569Z,100010.44
2023-02-15T04:26:50.277Z,100019.19
2023-02-15T04:27:48.496Z,100012.31
2023-02-15T04:28:03.094Z,100008.72
2023-02-15T04:28:37.771Z,100011.28
2023-02-15T04:28:58.435Z,100007.00
2023-02-15T04:29:54.188Z,100017.44
2023-02-15T04:30:27.519Z,100014.72
2023-02-15T04:31:01.750Z,100007.00
2023-02-15T04:32:13.957Z,100010.37
2023-02-15T04:32:46.572Z,100000.00
2023-02-15T04:33:21.189Z,100012.28
2023-02-15T04:34:16.057Z,100005.19
2023-02-15T04:34:48.737Z,100007.78
2023-02-15T04:35:21.438Z,100009.66
2023-02-15T04:35:54.133Z,100006.28
2023-02-15T04:36:27.082Z,100010.66
2023-02-15T04:37:17.956Z,100009.78
2023-02-15T04:37:50.663Z,100003.69
2023-02-15T04:40:09.539Z,100006.47
2023-02-15T04:42:48.292Z,100012.47
2023-02-15T04:43:21.057Z,100009.06
2023-02-15T04:44:20.173Z,100011.03
2023-02-15T04:45:54.692Z,100016.03
2023-02-15T04:46:27.765Z,100012.47
2023-02-15T04:47:00.343Z,100007.97
2023-02-15T04:47:33.260Z,100007.94
2023-02-15T04:48:05.916Z,100013.28
2023-02-15T04:48:38.525Z,100007.28
2023-02-15T04:49:11.241Z,100008.97
2023-02-15T04:49:43.883Z,100013.28
2023-02-15T04:50:16.605Z,100009.00
2023-02-15T04:50:51.490Z,100009.72
2023-02-15T04:51:24.079Z,100015.06
2023-02-15T04:52:15.448Z,100006.25
2023-02-15T04:52:48.317Z,100011.50
2023-02-15T04:53:21.081Z,100014.97
2023-02-15T04:54:12.372Z,100015.00
2023-02-15T04:54:45.695Z,100017.63
2023-02-15T04:55:18.289Z,100019.34
2023-02-15T04:56:10.186Z,100019.31
2023-02-15T04:57:02.272Z,100026.19
2023-02-15T04:57:54.165Z,100017.50
2023-02-15T04:58:26.717Z,100009.72
2023-02-15T04:59:23.991Z,100016.66
2023-02-15T04:59:42.851Z,100018.28
2023-02-15T05:00:15.542Z,100017.38
2023-02-15T05:00:48.133Z,100012.09
2023-02-15T05:01:20.936Z,100012.91
2023-02-15T05:01:53.505Z,100014.59
2023-02-15T05:02:26.270Z,100014.59
2023-02-15T05:02:58.835Z,100016.28
2023-02-15T05:03:31.408Z,100011.19
2023-02-15T05:04:05.819Z,100014.66
2023-02-15T05:04:38.564Z,100011.94
2023-02-15T05:05:13.976Z,100012.09
2023-02-15T05:06:14.986Z,100009.63
2023-02-15T05:07:06.332Z,100012.00
2023-02-15T05:07:38.992Z,100012.91
2023-02-15T05:08:11.521Z,100006.81
2023-02-15T05:08:44.972Z,100023.22
2023-02-15T05:09:36.370Z,100013.63
2023-02-15T05:10:28.494Z,100018.22
2023-02-15T05:11:20.633Z,100012.03
2023-02-15T05:11:53.220Z,100019.03
2023-02-15T05:12:25.802Z,100021.66
2023-02-15T05:12:58.326Z,100019.84
2023-02-15T05:13:11.164Z,100015.34
2023-02-15T05:13:43.705Z,100013.78
2023-02-15T05:14:16.293Z,100005.88
2023-02-15T05:14:48.823Z,100015.53
2023-02-15T05:15:21.413Z,100016.47
2023-02-15T05:15:54.097Z,100016.41
2023-02-15T05:16:28.680Z,100010.19
2023-02-15T05:17:52.808Z,100011.09
2023-02-15T05:18:25.384Z,100019.91
2023-02-15T05:18:57.919Z,100019.75
2023-02-15T05:19:30.509Z,100015.41
2023-02-15T05:20:03.844Z,100012.00
2023-02-15T05:20:36.398Z,100015.44
2023-02-15T05:21:27.725Z,100022.34
2023-02-15T05:22:21.054Z,100025.78
2023-02-15T05:22:56.255Z,100017.97
2023-02-15T05:23:28.838Z,100017.94
2023-02-15T05:23:41.698Z,100021.41
2023-02-15T05:24:33.576Z,100021.41
2023-02-15T05:25:49.119Z,100022.50
2023-02-15T05:26:41.046Z,100023.25
2023-02-15T05:27:32.573Z,100019.84
2023-02-15T05:28:20.388Z,100029.28
2023-02-15T05:28:53.098Z,100024.94
2023-02-15T05:29:25.648Z,100024.00
2023-02-15T05:30:17.070Z,100031.19
2023-02-15T05:31:08.976Z,100029.44
2023-02-15T05:31:41.689Z,100025.84
2023-02-15T05:32:14.608Z,100030.13
2023-02-15T05:33:23.005Z,100030.13
2023-02-15T05:33:55.553Z,100032.94
2023-02-15T05:34:30.085Z,100036.53
2023-02-15T05:35:02.610Z,100034.75
2023-02-15T05:35:58.718Z,100036.53
2023-02-15T05:36:31.455Z,100032.91
2023-02-15T05:37:04.020Z,100039.75
2023-02-15T05:37:36.581Z,100039.88
2023-02-15T05:38:09.435Z,100037.31
2023-02-15T05:38:42.229Z,100043.56
2023-02-15T05:39:14.971Z,100040.00
2023-02-15T05:39:47.505Z,100041.66
2023-02-15T05:40:20.066Z,100034.66
2023-02-15T05:40:52.917Z,100040.78
2023-02-15T05:41:26.577Z,100034.56
2023-02-15T05:42:01.745Z,100040.56
2023-02-15T05:42:34.320Z,100044.91
2023-02-15T05:43:06.922Z,100041.28
2023-02-15T05:43:39.851Z,100033.47
2023-02-15T05:44:12.719Z,100041.28
2023-02-15T05:44:45.331Z,100038.62
2023-02-15T05:45:56.820Z,100044.84
2023-02-15T05:46:29.739Z,100041.53
2023-02-15T05:47:40.685Z,100044.91
2023-02-15T05:48:13.231Z,100043.19
2023-02-15T05:49:04.484Z,100047.47
2023-02-15T05:49:37.347Z,100048.34
2023-02-15T05:50:10.955Z,100049.19
2023-02-15T05:51:10.769Z,100044.88
2023-02-15T05:52:04.093Z,100047.31
2023-02-15T05:52:37.026Z,100051.69
2023-02-15T05:53:09.769Z,100048.22
2023-02-15T05:53:42.696Z,100045.69
2023-02-15T05:54:33.809Z,100048.25
2023-02-15T05:55:25.254Z,100044.84
2023-02-15T05:56:01.002Z,100043.97
2023-02-15T05:56:32.815Z,100056.03
2023-02-15T05:57:05.600Z,100045.59
2023-02-15T05:57:38.211Z,100049.91
2023-02-15T05:58:10.791Z,100046.38
2023-02-15T05:58:43.422Z,100051.53
2023-02-15T05:59:16.094Z,100050.72
2023-02-15T05:59:48.687Z,100047.22
2023-02-15T06:00:21.383Z,100049.88
2023-02-15T06:00:54.529Z,100048.19
2023-02-15T06:01:27.073Z,100051.47
2023-02-15T06:01:59.683Z,100048.00
2023-02-15T06:02:50.645Z,100049.88
2023-02-15T06:03:23.946Z,100054.28
2023-02-15T06:03:57.049Z,100051.81
2023-02-15T06:04:48.415Z,100049.19
2023-02-15T06:05:41.462Z,100049.25
2023-02-15T06:06:14.068Z,100050.84
2023-02-15T06:07:25.361Z,100049.12
2023-02-15T06:07:58.229Z,100047.25
2023-02-15T06:08:49.093Z,100047.19
2023-02-15T06:09:41.231Z,100052.22
2023-02-15T06:10:14.141Z,100053.16
2023-02-15T06:11:06.213Z,100062.75
2023-02-15T06:11:57.581Z,100053.31
2023-02-15T06:12:31.307Z,100053.44
2023-02-15T06:13:03.913Z,100052.59
2023-02-15T06:13:38.552Z,100049.19
2023-02-15T06:14:27.942Z,100054.34
2023-02-15T06:15:29.624Z,100053.38
2023-02-15T06:16:02.441Z,100050.78
2023-02-15T06:16:53.838Z,100054.28
2023-02-15T06:17:52.557Z,100046.50
2023-02-15T06:18:25.165Z,100052.66
2023-02-15T06:19:16.966Z,100051.81
2023-02-15T06:19:49.547Z,100052.75
2023-02-15T06:20:21.904Z,100050.97
2023-02-15T06:20:54.420Z,100051.06
2023-02-15T06:21:45.549Z,100051.97
2023-02-15T06:22:41.698Z,100054.59
2023-02-15T06:23:14.407Z,100053.53
2023-02-15T06:24:05.971Z,100049.09
2023-02-15T06:25:10.864Z,100051.19
2023-02-15T06:26:18.492Z,100060.03
2023-02-15T06:26:51.037Z,100058.47
2023-02-15T06:27:23.558Z,100054.03
2023-02-15T06:27:56.128Z,100056.47
2023-02-15T06:28:28.669Z,100057.28
2023-02-15T06:29:01.233Z,100051.16
2023-02-15T06:29:33.786Z,100059.88
2023-02-15T06:30:07.806Z,100059.09
2023-02-15T06:30:40.615Z,100059.09
2023-02-15T06:30:57.863Z,100057.63
2023-02-15T06:31:31.263Z,100058.47
2023-02-15T06:32:03.894Z,100062.09
2023-02-15T06:32:36.528Z,100058.44
2023-02-15T06:33:31.419Z,100058.53
2023-02-15T06:34:03.996Z,100056.66
2023-02-15T06:34:36.521Z,100058.28
2023-02-15T06:35:09.094Z,100060.28
2023-02-15T06:35:42.216Z,100059.50
2023-02-15T06:36:14.763Z,100058.81
2023-02-15T06:37:05.586Z,100063.87
2023-02-15T06:37:38.318Z,100062.16
2023-02-15T06:38:10.871Z,100061.25
2023-02-15T06:38:44.606Z,100064.84
2023-02-15T06:39:17.412Z,100067.44
2023-02-15T06:40:09.594Z,100065.91
2023-02-15T06:40:42.137Z,100064.91
2023-02-15T06:41:14.683Z,100073.50
2023-02-15T06:42:05.533Z,100065.72
2023-02-15T06:42:56.541Z,100070.97
2023-02-15T06:43:29.072Z,100071.63
2023-02-15T06:44:21.070Z,100070.03
2023-02-15T06:45:12.293Z,100074.72
2023-02-15T06:45:45.088Z,100064.50
2023-02-15T06:46:17.664Z,100069.66
2023-02-15T06:46:52.029Z,100070.50
2023-02-15T06:47:24.558Z,100067.97
2023-02-15T06:47:57.926Z,100066.09
2023-02-15T06:48:30.445Z,100067.87
2023-02-15T06:49:30.034Z,100068.75
2023-02-15T06:50:03.084Z,100071.75
2023-02-15T06:50:58.799Z,100074.31
2023-02-15T06:51:31.408Z,100069.00
2023-02-15T06:52:22.704Z,100075.69
2023-02-15T06:53:01.013Z,100074.66
2023-02-15T06:53:33.718Z,100079.16
2023-02-15T06:53:46.990Z,100076.34
2023-02-15T06:54:19.741Z,100081.53
2023-02-15T06:54:52.468Z,100078.03
2023-02-15T06:55:25.641Z,100077.00
2023-02-15T06:56:16.711Z,100081.34
2023-02-15T06:56:49.542Z,100077.78
2023-02-15T06:57:22.105Z,100085.66
2023-02-15T06:57:55.640Z,100075.19
2023-02-15T06:58:28.396Z,100077.87
2023-02-15T06:59:01.035Z,100079.66
2023-02-15T07:00:05.953Z,100077.78
2023-02-15T07:00:38.646Z,100075.94
2023-02-15T07:01:29.830Z,100079.56
2023-02-15T07:02:21.440Z,100080.50
2023-02-15T07:02:56.162Z,100077.97
2023-02-15T07:03:08.999Z,100066.00
2023-02-15T07:03:41.633Z,100067.75
2023-02-15T07:04:14.242Z,100068.78
2023-02-15T07:04:47.086Z,100065.41
2023-02-15T07:05:19.780Z,100069.94
2023-02-15T07:05:59.678Z,100073.12
2023-02-15T07:06:34.164Z,100064.59
2023-02-15T07:07:08.950Z,100066.28
2023-02-15T07:08:00.280Z,100066.50
2023-02-15T07:08:51.592Z,100071.72
2023-02-15T07:09:53.598Z,100077.78
2023-02-15T07:10:26.633Z,100070.56
2023-02-15T07:11:19.501Z,100063.47
2023-02-15T07:12:27.905Z,100067.13
2023-02-15T07:13:20.675Z,100071.41
2023-02-15T07:13:53.867Z,100065.28
2023-02-15T07:14:28.912Z,100068.72
2023-02-15T07:15:19.097Z,100067.78
2023-02-15T07:15:51.913Z,100066.28
2023-02-15T07:16:24.910Z,100069.00
2023-02-15T07:16:57.592Z,100069.06
2023-02-15T07:17:35.874Z,100067.16
2023-02-15T07:18:06.193Z,100074.34
2023-02-15T07:18:58.931Z,100064.69
2023-02-15T07:19:31.539Z,100066.44
2023-02-15T07:20:52.843Z,100069.06
2023-02-15T07:21:25.758Z,100071.59
2023-02-15T07:21:58.678Z,100064.53
2023-02-15T07:22:31.627Z,100067.28
2023-02-15T07:23:05.402Z,100067.31
2023-02-15T07:23:39.079Z,100066.38
2023-02-15T07:24:30.934Z,100066.34
2023-02-15T07:25:04.817Z,100068.97
2023-02-15T07:25:37.636Z,100075.03
2023-02-15T07:26:52.413Z,100072.38
2023-02-15T07:27:25.036Z,100074.37
2023-02-15T07:27:59.171Z,100070.84
2023-02-15T07:28:33.334Z,100072.59
2023-02-15T07:29:06.077Z,100069.97
2023-02-15T07:29:38.820Z,100065.50
2023-02-15T07:30:13.262Z,100068.19
2023-02-15T07:30:46.360Z,100066.38
2023-02-15T07:31:19.245Z,100066.38
2023-02-15T07:32:10.593Z,100064.88
2023-02-15T07:33:04.772Z,100070.03
2023-02-15T07:33:35.037Z,100063.91
2023-02-15T07:34:08.738Z,100063.00
2023-02-15T07:35:00.556Z,100065.56
2023-02-15T07:35:34.172Z,100066.59
2023-02-15T07:36:07.555Z,100066.47
2023-02-15T07:38:06.585Z,100070.19
2023-02-15T07:39:34.369Z,100065.56
2023-02-15T07:40:07.584Z,100065.75
2023-02-15T07:40:40.523Z,100069.09
2023-02-15T07:41:15.197Z,100070.06
2023-02-15T07:41:47.963Z,100064.84
2023-02-15T07:42:22.102Z,100062.19
2023-02-15T07:42:56.049Z,100071.88
2023-02-15T07:43:29.527Z,100067.41
2023-02-15T07:44:02.730Z,100067.41
2023-02-15T07:44:35.620Z,100063.13
2023-02-15T07:45:08.856Z,100067.59
2023-02-15T07:45:21.870Z,100065.88
2023-02-15T07:45:54.781Z,100063.38
2023-02-15T07:46:27.816Z,100069.38
2023-02-15T07:47:00.760Z,100070.28
2023-02-15T07:47:33.505Z,100063.44
2023-02-15T07:48:06.672Z,100067.81
2023-02-15T07:48:40.096Z,100069.47
2023-02-15T07:49:12.865Z,100066.09
2023-02-15T07:49:45.828Z,100065.19
2023-02-15T07:50:18.596Z,100062.66
2023-02-15T07:50:51.368Z,100065.16
2023-02-15T07:51:24.199Z,100067.78
2023-02-15T07:51:56.918Z,100067.87
2023-02-15T07:53:41.470Z,100061.88
2023-02-15T07:54:14.186Z,100063.66
2023-02-15T07:55:06.285Z,100062.94
2023-02-15T07:55:39.156Z,100059.41
2023-02-15T07:56:33.486Z,100061.00
2023-02-15T07:57:03.879Z,100061.03
2023-02-15T07:57:36.745Z,100067.81
2023-02-15T07:58:09.446Z,100060.91
2023-02-15T07:58:54.971Z,100061.03
2023-02-15T07:59:28.375Z,100065.41
2023-02-15T08:00:01.020Z,100060.28
2023-02-15T08:00:58.185Z,100058.72
2023-02-15T08:01:32.668Z,100061.28
2023-02-15T08:02:10.568Z,100060.28
2023-02-15T08:02:43.689Z,100063.72
2023-02-15T08:03:16.528Z,100063.81
2023-02-15T08:03:49.215Z,100058.53
2023-02-15T08:04:40.429Z,100055.06
2023-02-15T08:05:13.914Z,100057.69
2023-02-15T08:05:46.704Z,100061.25
2023-02-15T08:06:19.614Z,100060.31
2023-02-15T08:07:40.589Z,100060.38
2023-02-15T08:08:31.463Z,100058.06
2023-02-15T08:09:05.771Z,100064.13
2023-02-15T08:09:38.527Z,100053.66
2023-02-15T08:10:33.251Z,100053.72
2023-02-15T08:11:40.829Z,100059.75
2023-02-15T08:12:13.494Z,100053.69
2023-02-15T08:12:46.447Z,100058.94
2023-02-15T08:13:54.603Z,100062.44
2023-02-15T08:14:51.010Z,100055.50
2023-02-15T08:15:23.868Z,100055.59
2023-02-15T08:15:56.747Z,100047.91
2023-02-15T08:16:40.851Z,100050.44
2023-02-15T08:17:32.486Z,100047.97
2023-02-15T08:19:04.573Z,100050.53
2023-02-15T08:19:40.618Z,100044.31
2023-02-15T08:20:32.005Z,100040.94
2023-02-15T08:21:05.910Z,100041.84
2023-02-15T08:21:41.614Z,100040.13
2023-02-15T08:22:32.897Z,100043.56
2023-02-15T08:23:05.651Z,100043.75
2023-02-15T08:23:38.446Z,100044.72
2023-02-15T08:24:11.772Z,100044.72
2023-02-15T08:24:44.656Z,100042.88
2023-02-15T08:25:17.637Z,100045.56
2023-02-15T08:25:52.404Z,100040.34
2023-02-15T08:26:25.371Z,100044.75
2023-02-15T08:27:11.125Z,100041.25
2023-02-15T08:27:44.268Z,100041.25
2023-02-15T08:29:07.661Z,100040.53
2023-02-15T08:29:43.404Z,100040.37